This is the latest recevied weather packets stored in our database for station/object DL4NBA-1. If no packets are shown the sender has not sent any weather packets the latest 1 day(s).
| Time | Temp. | Humidity | Pressure | Rain* | Wind** | Luminosity | Snow |
|---|---|---|---|---|---|---|---|
| 1836274751 | 12.22° C | - | - | 0 mm | 0 m/s | - | - |
| 1836274453 | 12.78° C | - | - | 0 mm | 0 m/s | - | - |
| 1836274152 | 12.22° C | - | - | 0 mm | 0 m/s | - | - |
| 1778014950 | 10° C | - | - | 0 mm | 0.89 m/s, 194° | - | - |
| 1778014648 | 10.56° C | - | - | 0 mm | 0.89 m/s, 214° | - | - |
| 1778014051 | 11.67° C | - | - | 0 mm | 0.45 m/s, 183° | - | - |
| 1778013752 | 11.11° C | - | - | 0 mm | 0.89 m/s, 193° | - | - |
| 1778013454 | 10.56° C | - | - | 0 mm | 0.89 m/s, 198° | - | - |
| 1778012853 | 11.11° C | - | - | 0 mm | 1.34 m/s, 173° | - | - |
| 1778012255 | 11.11° C | - | - | 0 mm | 1.34 m/s, 146° | - | - |
| 1778011956 | 11.11° C | - | - | 0 mm | 0 m/s | - | - |
| 1778011654 | 11.11° C | - | - | 0 mm | 0 m/s | - | - |
| 1778011355 | 10.56° C | - | - | 0 mm | 1.34 m/s, 184° | - | - |
| 1778011056 | 10.56° C | - | - | 0 mm | 0.89 m/s, 212° | - | - |
| 1778010459 | 11.11° C | - | - | 0 mm | 0 m/s | - | - |
| 1778010156 | 11.67° C | - | - | 0 mm | 0.89 m/s, 194° | - | - |
| 1778009260 | 11.67° C | - | - | 0 mm | 0.89 m/s, 205° | - | - |
| 1778008962 | 12.22° C | - | - | 0 mm | 0.45 m/s, 190° | - | - |
| 1778008358 | 12.78° C | - | - | 0 mm | 0.89 m/s, 200° | - | - |
| 1778007760 | 12.22° C | - | - | 0 mm | 0.89 m/s, 176° | - | - |
| 1778007461 | 11.67° C | - | - | 0 mm | 0 m/s | - | - |
| 1778007156 | 11.67° C | - | - | 0 mm | 0.45 m/s, 158° | - | - |
| 1778006857 | 12.22° C | - | - | 0 mm | 1.79 m/s, 278° | - | - |
| 1778005959 | 12.22° C | - | - | 0 mm | 2.68 m/s, 256° | - | - |
| 1778005657 | 12.22° C | - | - | 0 mm | 2.24 m/s, 260° | - | - |
* Rain latest hour (hover to see other rain measurements)
** Current wind speed in m/s (hover to see current wind gust speed)